createdAt,value
2022-12-17T00:01:28.144Z,19.67
2022-12-17T00:04:16.322Z,15.75
2022-12-17T00:07:02.701Z,20.70
2022-12-17T00:09:50.568Z,20.48
2022-12-17T00:12:39.228Z,17.90
2022-12-17T00:15:28.324Z,19.88
2022-12-17T00:18:20.696Z,16.02
2022-12-17T00:21:10.876Z,20.10
2022-12-17T00:24:02.151Z,18.17
2022-12-17T00:26:50.228Z,17.67
2022-12-17T00:29:37.850Z,19.33
2022-12-17T00:32:24.003Z,21.55
2022-12-17T00:35:09.778Z,20.33
2022-12-17T00:37:56.517Z,19.45
2022-12-17T00:40:42.148Z,16.25
2022-12-17T00:43:28.708Z,18.85
2022-12-17T00:46:14.666Z,18.88
2022-12-17T00:49:02.953Z,17.27
2022-12-17T00:51:48.301Z,20.52
2022-12-17T00:54:33.846Z,12.45
2022-12-17T00:57:21.846Z,14.82
2022-12-17T01:00:06.790Z,19.17
2022-12-17T01:02:52.754Z,18.45
2022-12-17T01:05:39.029Z,19.45
2022-12-17T01:08:27.937Z,24.08
2022-12-17T01:11:17.349Z,20.33
2022-12-17T01:14:02.491Z,18.83
2022-12-17T01:16:50.127Z,16.05
2022-12-17T01:19:37.003Z,24.00
2022-12-17T01:22:22.409Z,24.65
2022-12-17T01:25:10.787Z,19.83
2022-12-17T01:28:01.912Z,20.75
2022-12-17T01:30:53.725Z,19.05
2022-12-17T01:33:40.074Z,20.45
2022-12-17T01:36:25.855Z,14.85
2022-12-17T01:39:10.930Z,13.88
2022-12-17T01:41:56.401Z,16.08
2022-12-17T01:45:00.838Z,18.05
2022-12-17T01:47:49.508Z,25.20
2022-12-17T01:50:35.602Z,21.15
2022-12-17T01:53:31.498Z,17.65
2022-12-17T01:56:20.109Z,16.90
2022-12-17T01:59:08.248Z,22.05
2022-12-17T02:01:54.003Z,18.75
2022-12-17T02:04:39.525Z,25.70
2022-12-17T02:07:43.730Z,20.38
2022-12-17T02:10:35.278Z,23.13
2022-12-17T02:13:46.738Z,18.85
2022-12-17T02:16:39.365Z,20.10
2022-12-17T02:19:38.717Z,17.73
2022-12-17T02:22:38.967Z,14.85
2022-12-17T02:25:35.060Z,19.60
2022-12-17T02:28:20.844Z,17.95
2022-12-17T02:31:06.457Z,11.98
2022-12-17T02:33:55.209Z,16.52
2022-12-17T02:36:40.829Z,18.65
2022-12-17T02:39:26.060Z,16.15
2022-12-17T02:42:15.634Z,17.90
2022-12-17T02:45:03.166Z,12.73
2022-12-17T02:47:51.795Z,17.85
2022-12-17T02:50:40.144Z,14.85
2022-12-17T02:53:25.572Z,16.58
2022-12-17T02:56:13.585Z,15.23
2022-12-17T02:59:02.549Z,13.85
2022-12-17T03:01:47.925Z,14.65
2022-12-17T03:04:36.264Z,12.27
2022-12-17T03:07:21.503Z,14.85
2022-12-17T03:10:06.631Z,16.58
2022-12-17T03:12:54.691Z,18.15
2022-12-17T03:15:42.801Z,12.00
2022-12-17T03:18:28.037Z,16.80
2022-12-17T03:21:15.579Z,16.33
2022-12-17T03:24:03.722Z,13.95
2022-12-17T03:26:52.023Z,18.30
2022-12-17T03:29:37.133Z,9.77
2022-12-17T03:32:22.659Z,17.30
2022-12-17T03:35:10.958Z,14.68
2022-12-17T03:37:59.556Z,15.90
2022-12-17T03:40:47.156Z,15.85
2022-12-17T03:43:34.730Z,18.60
2022-12-17T03:46:20.297Z,13.80
2022-12-17T03:49:09.236Z,7.95
2022-12-17T03:51:54.435Z,11.00
2022-12-17T03:54:40.309Z,15.80
2022-12-17T03:57:28.751Z,12.15
2022-12-17T04:00:16.450Z,12.18
2022-12-17T04:03:07.626Z,15.35
2022-12-17T04:05:56.040Z,17.13
2022-12-17T04:08:41.730Z,14.77
2022-12-17T04:11:29.859Z,13.70
2022-12-17T04:14:15.079Z,13.50
2022-12-17T04:17:00.730Z,10.52
2022-12-17T04:19:48.292Z,19.00
2022-12-17T04:22:36.634Z,12.63
2022-12-17T04:25:25.322Z,15.57
2022-12-17T04:28:10.363Z,13.55
2022-12-17T04:30:58.522Z,16.50
2022-12-17T04:33:44.164Z,17.35
2022-12-17T04:36:29.347Z,14.60
2022-12-17T04:39:15.159Z,12.73
2022-12-17T04:42:02.945Z,16.58
2022-12-17T04:44:47.948Z,4.10
2022-12-17T04:47:35.793Z,9.18
2022-12-17T04:50:25.030Z,10.77
2022-12-17T04:53:18.431Z,9.15
2022-12-17T04:56:04.037Z,5.13
2022-12-17T04:58:51.596Z,12.63
2022-12-17T05:01:39.458Z,16.48
2022-12-17T05:04:24.886Z,10.95
2022-12-17T05:07:13.049Z,17.95
2022-12-17T05:10:04.129Z,13.85
2022-12-17T05:12:49.860Z,13.25
2022-12-17T05:15:37.595Z,14.15
2022-12-17T05:18:25.437Z,12.13
2022-12-17T05:21:13.053Z,14.93
2022-12-17T05:23:58.827Z,2.15
2022-12-17T05:26:47.780Z,14.82
2022-12-17T05:29:35.370Z,12.68
2022-12-17T05:32:23.541Z,16.88
2022-12-17T05:35:11.831Z,17.13
2022-12-17T05:37:57.309Z,10.55
2022-12-17T05:40:45.454Z,16.23
2022-12-17T05:43:33.366Z,12.27
2022-12-17T05:46:24.600Z,19.83
2022-12-17T05:49:13.388Z,16.77
2022-12-17T05:52:01.695Z,16.80
2022-12-17T05:54:47.256Z,19.38
2022-12-17T05:57:39.205Z,15.70
2022-12-17T06:00:24.989Z,16.63
2022-12-17T06:03:22.962Z,16.83
2022-12-17T06:06:16.458Z,13.45
2022-12-17T06:09:05.548Z,17.00
2022-12-17T06:11:57.904Z,17.75
2022-12-17T06:14:44.609Z,13.27
2022-12-17T06:17:32.302Z,14.27
2022-12-17T06:20:17.420Z,11.07
2022-12-17T06:23:03.132Z,14.30
2022-12-17T06:25:51.287Z,20.73
2022-12-17T06:28:36.367Z,10.68
2022-12-17T06:31:24.061Z,15.57
2022-12-17T06:34:11.878Z,16.83
2022-12-17T06:36:59.259Z,15.23
2022-12-17T06:42:47.452Z,15.82
2022-12-17T06:45:32.532Z,10.00
2022-12-17T06:48:21.637Z,12.55
2022-12-17T06:51:12.339Z,12.80
2022-12-17T06:54:00.886Z,16.52
2022-12-17T06:56:49.006Z,21.23
2022-12-17T06:59:37.410Z,17.08
2022-12-17T07:02:22.451Z,16.30
2022-12-17T07:05:10.424Z,14.50
2022-12-17T07:07:58.490Z,12.77
2022-12-17T07:10:44.237Z,14.65
2022-12-17T07:13:29.741Z,14.25
2022-12-17T07:16:18.069Z,20.90
2022-12-17T07:19:06.455Z,15.70
2022-12-17T07:21:51.487Z,15.73
2022-12-17T07:24:38.949Z,12.52
2022-12-17T07:27:27.545Z,18.08
2022-12-17T07:30:15.088Z,11.23
2022-12-17T07:33:00.568Z,13.23
2022-12-17T07:35:45.641Z,13.32
2022-12-17T07:38:31.348Z,15.27
2022-12-17T07:41:17.970Z,8.45
2022-12-17T07:44:08.857Z,13.80
2022-12-17T07:46:57.080Z,11.65
2022-12-17T07:49:42.334Z,11.00
2022-12-17T07:52:27.655Z,8.73
2022-12-17T07:55:18.077Z,13.10
2022-12-17T07:58:06.596Z,12.18
2022-12-17T08:00:54.607Z,17.08
2022-12-17T08:03:41.039Z,10.32
2022-12-17T08:06:27.063Z,11.13
2022-12-17T08:09:16.209Z,11.52
2022-12-17T08:12:01.997Z,10.10
2022-12-17T08:14:47.138Z,13.32
2022-12-17T08:17:34.654Z,13.10
2022-12-17T08:20:20.310Z,12.00
2022-12-17T08:23:05.642Z,13.82
2022-12-17T08:25:50.727Z,16.05
2022-12-17T08:28:51.524Z,19.33
2022-12-17T08:31:39.933Z,14.30
2022-12-17T08:34:36.361Z,15.88
2022-12-17T08:37:22.098Z,15.48
2022-12-17T08:40:10.282Z,11.00
2022-12-17T08:42:58.423Z,18.25
2022-12-17T08:45:43.625Z,20.23
2022-12-17T08:48:28.758Z,12.38
2022-12-17T08:51:14.042Z,14.35
2022-12-17T08:54:01.781Z,10.82
2022-12-17T08:56:46.808Z,15.18
2022-12-17T08:59:34.928Z,15.38
2022-12-17T09:02:23.009Z,12.23
2022-12-17T09:05:11.141Z,16.05
2022-12-17T09:07:56.267Z,15.70
2022-12-17T09:10:47.409Z,13.73
2022-12-17T09:13:38.845Z,11.60
2022-12-17T09:16:24.572Z,14.20
2022-12-17T09:19:12.135Z,21.00
2022-12-17T09:22:00.434Z,17.75
2022-12-17T09:24:47.927Z,24.27
2022-12-17T09:27:35.577Z,13.45
2022-12-17T09:30:21.308Z,19.30
2022-12-17T09:33:06.324Z,33.55
2022-12-17T09:36:02.709Z,25.10
2022-12-17T09:38:50.543Z,16.17
2022-12-17T09:41:46.446Z,21.88
2022-12-17T09:44:31.576Z,6.90
2022-12-17T09:47:52.235Z,14.02
2022-12-17T09:50:37.656Z,7.28
2022-12-17T09:53:28.295Z,5.18
2022-12-17T09:56:16.724Z,7.10
2022-12-17T09:59:05.463Z,5.30
2022-12-17T10:01:54.276Z,9.82
2022-12-17T10:05:09.823Z,10.05
2022-12-17T10:07:57.354Z,6.32
2022-12-17T10:10:49.350Z,9.02
2022-12-17T10:13:41.799Z,3.33
2022-12-17T10:16:42.249Z,8.52
2022-12-17T10:19:35.007Z,6.53
2022-12-17T10:22:27.485Z,6.88
2022-12-17T10:25:13.235Z,7.57
2022-12-17T10:27:58.245Z,5.30
2022-12-17T10:30:46.947Z,8.00
2022-12-17T10:33:36.919Z,8.88
2022-12-17T10:36:23.613Z,11.38
2022-12-17T10:39:13.048Z,7.32
2022-12-17T10:42:00.168Z,7.38
2022-12-17T10:44:46.847Z,9.60
2022-12-17T10:47:42.219Z,7.80
2022-12-17T10:50:31.729Z,6.38
2022-12-17T10:53:17.279Z,9.82
2022-12-17T10:56:13.066Z,8.95
2022-12-17T10:59:09.868Z,12.90
2022-12-17T11:01:56.140Z,9.45
2022-12-17T11:04:43.061Z,15.38
2022-12-17T11:07:45.381Z,11.90
2022-12-17T11:10:41.585Z,9.13
2022-12-17T11:13:47.388Z,12.30
2022-12-17T11:16:41.092Z,13.38
2022-12-17T11:19:49.285Z,13.57
2022-12-17T11:22:39.899Z,13.18
2022-12-17T11:25:31.378Z,13.45
2022-12-17T11:28:42.810Z,7.60
2022-12-17T11:31:40.136Z,9.35
2022-12-17T11:34:25.246Z,11.70
2022-12-17T11:37:14.739Z,13.63
2022-12-17T11:40:05.980Z,13.52
2022-12-17T11:43:06.273Z,7.60
2022-12-17T11:46:10.373Z,13.27
2022-12-17T11:48:57.857Z,11.95
2022-12-17T11:51:48.274Z,11.70
2022-12-17T11:54:41.236Z,8.88
2022-12-17T11:57:45.324Z,9.80
2022-12-17T12:00:48.651Z,15.95
2022-12-17T12:03:52.571Z,7.93
2022-12-17T12:06:40.900Z,18.17
2022-12-17T12:09:45.155Z,14.55
2022-12-17T12:12:33.351Z,13.65
2022-12-17T12:15:47.644Z,16.13
2022-12-17T12:19:00.307Z,10.55
2022-12-17T12:21:45.350Z,11.63
2022-12-17T12:24:39.922Z,11.30
2022-12-17T12:27:39.146Z,8.25
2022-12-17T12:30:40.429Z,15.15
2022-12-17T12:33:45.652Z,15.13
2022-12-17T12:36:35.808Z,11.50
2022-12-17T12:39:21.951Z,13.95
2022-12-17T12:42:25.800Z,14.13
2022-12-17T12:45:19.076Z,13.55
2022-12-17T12:48:09.732Z,15.68
2022-12-17T12:51:00.938Z,13.20
2022-12-17T12:53:49.523Z,12.63
2022-12-17T12:56:48.470Z,12.10
2022-12-17T12:59:56.572Z,13.15
2022-12-17T13:02:50.888Z,14.90
2022-12-17T13:05:34.420Z,13.15
2022-12-17T13:08:10.348Z,12.15
2022-12-17T13:10:42.973Z,12.20
2022-12-17T13:13:15.835Z,16.40
2022-12-17T13:15:54.108Z,12.10
2022-12-17T13:18:31.989Z,13.05
2022-12-17T13:21:02.373Z,15.63
2022-12-17T13:23:43.520Z,17.75
2022-12-17T13:26:29.418Z,15.20
2022-12-17T13:28:59.248Z,15.68
2022-12-17T13:31:32.280Z,14.75
2022-12-17T13:34:19.123Z,19.70
2022-12-17T13:36:49.132Z,12.57
2022-12-17T13:39:28.317Z,18.33
2022-12-17T13:42:01.479Z,15.57
2022-12-17T13:44:41.458Z,17.25
2022-12-17T13:47:31.613Z,14.60
2022-12-17T13:52:59.989Z,14.68
2022-12-17T13:55:32.689Z,13.55
2022-12-17T13:58:04.832Z,13.20
2022-12-17T14:00:40.318Z,18.58
2022-12-17T14:03:12.470Z,14.80
2022-12-17T14:05:43.644Z,12.68
2022-12-17T14:08:22.451Z,12.63
2022-12-17T14:11:17.621Z,12.18
2022-12-17T14:13:52.258Z,13.65
2022-12-17T14:16:26.162Z,12.55
2022-12-17T14:19:01.847Z,14.65
2022-12-17T14:21:34.253Z,16.02
2022-12-17T14:24:03.957Z,10.80
2022-12-17T14:26:37.244Z,15.35
2022-12-17T14:29:12.786Z,12.70
2022-12-17T14:31:51.943Z,13.32
2022-12-17T14:34:23.669Z,15.60
2022-12-17T14:37:00.818Z,10.80
2022-12-17T14:39:29.240Z,17.25
2022-12-17T14:42:18.591Z,12.52
2022-12-17T14:44:55.585Z,14.18
2022-12-17T14:47:28.367Z,10.90
2022-12-17T14:50:01.270Z,13.48
2022-12-17T14:52:38.307Z,11.57
2022-12-17T14:55:24.037Z,12.32
2022-12-17T14:57:57.219Z,12.73
2022-12-17T15:00:27.174Z,13.05
2022-12-17T15:02:59.356Z,12.77
2022-12-17T15:05:31.592Z,12.98
2022-12-17T15:08:04.260Z,12.90
2022-12-17T15:10:31.297Z,18.33
2022-12-17T15:13:07.052Z,18.48
2022-12-17T15:15:39.789Z,11.55
2022-12-17T15:18:12.301Z,15.00
2022-12-17T15:20:44.422Z,16.50
2022-12-17T15:23:29.686Z,9.88
2022-12-17T15:26:00.312Z,11.00
2022-12-17T15:28:33.651Z,14.35
2022-12-17T15:31:04.029Z,16.65
2022-12-17T15:33:36.422Z,13.43
2022-12-17T15:36:09.003Z,10.52
2022-12-17T15:38:39.592Z,9.30
2022-12-17T15:41:25.785Z,10.05
2022-12-17T15:43:57.653Z,8.73
2022-12-17T15:46:30.666Z,10.35
2022-12-17T15:49:04.110Z,10.15
2022-12-17T15:51:33.292Z,11.23
2022-12-17T15:54:03.813Z,11.10
2022-12-17T15:56:35.273Z,7.78
2022-12-17T15:59:08.394Z,7.75
2022-12-17T16:01:47.308Z,11.38
2022-12-17T16:04:24.975Z,14.85
2022-12-17T16:06:56.073Z,9.15
2022-12-17T16:09:33.347Z,10.32
2022-12-17T16:12:01.287Z,10.50
2022-12-17T16:14:31.433Z,13.73
2022-12-17T16:17:01.681Z,11.15
2022-12-17T16:19:29.353Z,8.88
2022-12-17T16:22:02.693Z,7.20
2022-12-17T16:24:32.146Z,8.15
2022-12-17T16:27:04.695Z,13.85
2022-12-17T16:29:37.714Z,9.52
2022-12-17T16:34:57.206Z,7.70
2022-12-17T16:37:27.494Z,6.80
2022-12-17T16:40:00.341Z,6.68
2022-12-17T16:42:33.547Z,9.77
2022-12-17T16:45:00.692Z,11.00
2022-12-17T16:47:33.499Z,8.35
2022-12-17T16:50:06.434Z,6.22
2022-12-17T16:52:42.323Z,3.78
2022-12-17T16:55:12.566Z,6.55
2022-12-17T16:57:48.707Z,6.20
2022-12-17T17:00:24.736Z,6.57
2022-12-17T17:02:58.305Z,6.40
2022-12-17T17:05:25.505Z,6.53
2022-12-17T17:07:56.049Z,6.47
2022-12-17T17:10:28.826Z,11.40
2022-12-17T17:12:55.954Z,3.75
2022-12-17T17:15:29.165Z,6.82
2022-12-17T17:18:01.901Z,7.07
2022-12-17T17:20:35.327Z,8.75
2022-12-17T17:23:08.673Z,4.55
2022-12-17T17:25:58.112Z,3.97
2022-12-17T17:28:29.190Z,5.68
2022-12-17T17:31:03.410Z,6.30
2022-12-17T17:33:38.760Z,7.80
2022-12-17T17:36:15.822Z,8.02
2022-12-17T17:38:48.412Z,6.82
2022-12-17T17:41:19.915Z,5.18
2022-12-17T17:44:02.543Z,5.38
2022-12-17T17:46:33.116Z,5.80
2022-12-17T17:49:08.643Z,8.80
2022-12-17T17:54:35.329Z,9.32
2022-12-17T17:57:07.555Z,9.50
2022-12-17T17:59:46.091Z,10.50
2022-12-17T18:02:18.292Z,17.15
2022-12-17T18:04:50.684Z,8.32
2022-12-17T18:07:25.525Z,10.10
2022-12-17T18:10:00.041Z,7.25
2022-12-17T18:12:51.512Z,8.95
2022-12-17T18:15:21.108Z,6.80
2022-12-17T18:17:51.927Z,7.97
2022-12-17T18:20:21.500Z,7.93
2022-12-17T18:22:51.981Z,6.25
2022-12-17T18:25:24.975Z,6.88
2022-12-17T18:28:00.315Z,2.92
2022-12-17T18:30:32.647Z,4.72
2022-12-17T18:33:02.310Z,5.97
2022-12-17T18:35:32.858Z,6.82
2022-12-17T18:38:02.294Z,4.15
2022-12-17T18:40:33.932Z,5.55
2022-12-17T18:43:21.982Z,3.92
2022-12-17T18:45:58.718Z,5.18
2022-12-17T18:48:35.182Z,4.30
2022-12-17T18:51:11.945Z,5.28
2022-12-17T18:53:44.253Z,6.28
2022-12-17T18:56:37.987Z,4.20
2022-12-17T18:59:29.087Z,4.82
2022-12-17T19:02:00.906Z,4.75
2022-12-17T19:04:35.358Z,7.25
2022-12-17T19:07:08.624Z,6.28
2022-12-17T19:09:49.086Z,5.97
2022-12-17T19:12:22.278Z,4.50
2022-12-17T19:14:52.295Z,5.13
2022-12-17T19:17:27.536Z,7.63
2022-12-17T19:20:03.351Z,5.22
2022-12-17T19:22:34.044Z,3.55
2022-12-17T19:25:04.447Z,6.10
2022-12-17T19:27:34.661Z,7.30
2022-12-17T19:30:10.357Z,6.40
2022-12-17T19:32:44.362Z,3.58
2022-12-17T19:35:21.014Z,5.90
2022-12-17T19:37:53.476Z,6.57
2022-12-17T19:40:22.753Z,9.23
2022-12-17T19:42:55.296Z,3.08
2022-12-17T19:45:28.135Z,6.35
2022-12-17T19:47:55.691Z,8.27
2022-12-17T19:50:24.876Z,8.35
2022-12-17T19:52:57.094Z,5.85
2022-12-17T19:55:27.174Z,6.28
2022-12-17T19:58:01.256Z,5.00
2022-12-17T20:00:30.829Z,7.20
2022-12-17T20:03:00.989Z,6.63
2022-12-17T20:05:34.421Z,7.45
2022-12-17T20:08:04.715Z,6.18
2022-12-17T20:10:34.988Z,10.43
2022-12-17T20:13:07.438Z,7.75
2022-12-17T20:15:41.247Z,10.50
2022-12-17T20:18:11.474Z,7.70
2022-12-17T20:20:41.102Z,4.80
2022-12-17T20:23:13.687Z,6.40
2022-12-17T20:25:56.007Z,6.63
2022-12-17T20:28:29.629Z,5.15
2022-12-17T20:31:00.314Z,4.93
2022-12-17T20:33:32.920Z,7.63
2022-12-17T20:36:12.182Z,7.78
2022-12-17T20:38:41.723Z,8.00
2022-12-17T20:41:16.104Z,7.53
2022-12-17T20:43:45.744Z,5.95
2022-12-17T20:46:16.595Z,6.35
2022-12-17T20:48:45.382Z,6.32
2022-12-17T20:51:19.515Z,7.13
2022-12-17T20:53:51.852Z,6.03
2022-12-17T20:56:25.265Z,9.05
2022-12-17T20:58:59.450Z,5.38
2022-12-17T21:01:35.968Z,4.82
2022-12-17T21:04:07.142Z,5.45
2022-12-17T21:06:50.247Z,6.25
2022-12-17T21:09:24.781Z,6.50
2022-12-17T21:11:57.311Z,6.72
2022-12-17T21:14:33.664Z,5.35
2022-12-17T21:17:05.066Z,7.10
2022-12-17T21:19:38.359Z,4.85
2022-12-17T21:22:10.866Z,6.05
2022-12-17T21:24:41.653Z,5.93
2022-12-17T21:27:17.695Z,7.60
2022-12-17T21:32:44.302Z,4.28
2022-12-17T21:35:19.287Z,5.32
2022-12-17T21:37:52.022Z,11.27
2022-12-17T21:40:22.390Z,6.32
2022-12-17T21:43:05.884Z,3.38
2022-12-17T21:45:42.850Z,7.70
2022-12-17T21:48:17.341Z,9.00
2022-12-17T21:50:55.575Z,6.28
2022-12-17T21:53:34.191Z,6.85
2022-12-17T21:56:12.265Z,5.20
2022-12-17T21:58:48.749Z,6.22
2022-12-17T22:01:23.856Z,6.95
2022-12-17T22:03:54.615Z,5.80
2022-12-17T22:06:31.654Z,5.05
2022-12-17T22:09:23.585Z,10.95
2022-12-17T22:12:16.395Z,11.73
2022-12-17T22:14:50.436Z,12.43
2022-12-17T22:17:23.716Z,10.85
2022-12-17T22:19:59.767Z,13.68
2022-12-17T22:22:29.394Z,7.30
2022-12-17T22:25:08.030Z,11.27
2022-12-17T22:27:49.186Z,8.70
2022-12-17T22:30:37.704Z,7.78
2022-12-17T22:33:24.023Z,7.68
2022-12-17T22:37:36.255Z,5.05
2022-12-17T22:43:25.113Z,10.32
2022-12-17T22:44:36.109Z,8.02
2022-12-17T22:44:57.789Z,8.93
2022-12-17T22:47:29.796Z,9.18
2022-12-17T22:50:05.338Z,11.48
2022-12-17T22:52:35.497Z,7.95
2022-12-17T22:55:11.575Z,9.43
2022-12-17T22:57:46.000Z,12.65
2022-12-17T23:00:23.229Z,9.73
2022-12-17T23:02:57.163Z,10.10
2022-12-17T23:05:27.747Z,12.15
2022-12-17T23:08:01.370Z,6.28
2022-12-17T23:10:31.703Z,10.75
2022-12-17T23:13:07.097Z,5.68
2022-12-17T23:15:40.617Z,7.38
2022-12-17T23:18:07.732Z,11.82
2022-12-17T23:20:41.726Z,9.82
2022-12-17T23:23:12.293Z,9.15
2022-12-17T23:25:42.660Z,7.97
2022-12-17T23:28:16.182Z,10.75
2022-12-17T23:30:52.448Z,5.72
2022-12-17T23:33:25.665Z,8.23
2022-12-17T23:36:05.791Z,6.32
2022-12-17T23:38:41.704Z,8.60
2022-12-17T23:41:13.151Z,6.57
2022-12-17T23:43:43.251Z,10.95
2022-12-17T23:46:13.928Z,7.95
2022-12-17T23:48:50.633Z,8.75
2022-12-17T23:51:24.630Z,9.55
2022-12-17T23:53:54.231Z,6.80
2022-12-17T23:56:29.672Z,7.28
2022-12-17T23:59:08.994Z,7.90
